METAR Data
IDs: Format: Raw Decoded Include TAF

Data at: 0544 UTC 24 Sep 2018

KORB 240533Z AUTO 13007KT 100V170 10SM OVC006 07/05 A2998 RMK AO2
KORB 240513Z AUTO 13008KT 080V170 10SM OVC006 07/05 A2999 RMK AO2
KORB 240453Z AUTO 13005KT 10SM OVC006 07/05 A3000 RMK AO2
KORB 240433Z AUTO 12005KT 10SM OVC006 07/04 A3001 RMK AO2
KORB 240413Z AUTO 11003KT 10SM OVC006 06/04 A3002 RMK AO2
KORB 240353Z AUTO 10004KT 10SM OVC008 06/04 A3003 RMK AO2
KORB 240333Z AUTO 11004KT 10SM OVC008 06/04 A3004 RMK AO2
KORB 240313Z AUTO 11005KT 10SM OVC008 06/04 A3005 RMK AO2
KORB 240253Z AUTO 11003KT 10SM OVC008 06/04 A3005 RMK AO2
KORB 240233Z AUTO 09004KT 10SM OVC008 06/04 A3006 RMK AO2
KORB 240213Z AUTO 11004KT 10SM OVC008 06/03 A3006 RMK AO2
KORB 240153Z AUTO 11004KT 10SM OVC008 06/03 A3005 RMK AO2
KORB 240133Z AUTO 13004KT 10SM OVC008 06/03 A3005 RMK AO2
KORB 240113Z AUTO 10005KT 10SM OVC008 06/03 A3005 RMK AO2
KORB 240053Z AUTO 10004KT 10SM OVC008 06/03 A3006 RMK AO2
KORB 240033Z AUTO 10005KT 10SM OVC008 06/03 A3005 RMK AO2
KORB 240013Z AUTO 12006KT 10SM OVC008 06/03 A3004 RMK AO2
KORB 232353Z AUTO 11009G14KT 040V140 10SM OVC010 06/03 A3007 RMK AO2
KORB 232333Z AUTO 10008KT 070V140 10SM OVC012 06/03 A3008 RMK AO2
KORB 232313Z AUTO 11004KT 10SM OVC012 06/03 A3009 RMK AO2
KORB 232253Z AUTO 11006KT 10SM OVC012 06/03 A3010 RMK AO2
KORB 232233Z AUTO 11006KT 10SM OVC012 06/03 A3010 RMK AO2
KORB 232213Z AUTO 11008KT 060V160 10SM OVC012 07/03 A3009 RMK AO2
KORB 232153Z AUTO 11007KT 060V160 10SM OVC012 07/03 A3010 RMK AO2
KORB 232133Z AUTO 11007G14KT 060V140 10SM OVC012 07/03 A3010 RMK AO2
KORB 232113Z AUTO 09005KT 10SM OVC012 07/03 A3010 RMK AO2
KORB 232053Z AUTO 10006KT 10SM OVC012 07/03 A3010 RMK AO2
KORB 232033Z AUTO 10006G17KT 10SM OVC012 07/03 A3010 RMK AO2
KORB 232013Z AUTO 11007KT 070V150 10SM OVC012 07/03 A3012 RMK AO2
KORB 231953Z AUTO 10008KT 060V170 10SM OVC014 07/03 A3013 RMK AO2
KORB 231933Z AUTO 12005G14KT 10SM OVC016 07/03 A3012 RMK AO2
KORB 231913Z AUTO 12008G16KT 070V160 10SM OVC016 07/03 A3013 RMK AO2
KORB 231853Z AUTO 13007G14KT 100V180 10SM OVC016 07/03 A3014 RMK AO2
KORB 231833Z AUTO 10005G16KT 10SM OVC016 07/03 A3015 RMK AO2
KORB 231813Z AUTO 10006G15KT 10SM OVC014 07/02 A3016 RMK AO2
KORB 231753Z AUTO 13007KT 100V160 10SM OVC014 07/02 A3016 RMK AO2
KORB 231733Z AUTO 10006KT 10SM OVC012 06/02 A3017 RMK AO2
KORB 231713Z AUTO 11007KT 040V190 10SM OVC012 06/02 A3018 RMK AO2
KORB 231653Z AUTO 12009G17KT 090V150 10SM OVC012 06/02 A3018 RMK AO2
KORB 231633Z AUTO 12005KT 10SM OVC012 05/02 A3019 RMK AO2
KORB 231613Z AUTO 10007KT 020V160 10SM OVC012 05/02 A3019 RMK AO2
KORB 231553Z AUTO 10005KT 10SM OVC012 04/02 A3019 RMK AO2
KORB 231533Z AUTO 10006KT 10SM OVC010 04/02 A3019 RMK AO2
KORB 231513Z AUTO 10005KT 10SM OVC008 04/02 A3019 RMK AO2
KORB 231453Z AUTO 11008KT 060V180 10SM OVC008 04/03 A3018 RMK AO2
KORB 231433Z AUTO 11006KT 10SM OVC008 04/02 A3017 RMK AO2
KORB 231413Z AUTO 00000KT 4SM BR OVC006 04/02 A3016 RMK AO2
KORB 231353Z AUTO 10004KT 4SM BR OVC006 03/02 A3016 RMK AO2
KORB 231333Z AUTO 09004KT 3SM BR OVC006 03/02 A3016 RMK AO2
KORB 231313Z AUTO 00000KT 3SM BR BKN006 OVC009 03/02 A3015 RMK AO2
KORB 231253Z AUTO 09004KT 7SM OVC008 04/02 A3015 RMK AO2
KORB 231233Z AUTO 09006KT 4SM BR OVC006 04/02 A3014 RMK AO2
KORB 231213Z AUTO 10004KT 4SM BR OVC006 03/02 A3014 RMK AO2
KORB 231153Z AUTO 09007KT 030V110 5SM BR OVC006 03/02 A3013 RMK AO2
KORB 231133Z AUTO 08003KT 5SM BR OVC006 03/02 A3013 RMK AO2
KORB 231113Z AUTO 09005KT 4SM BR OVC006 03/02 A3012 RMK AO2
KORB 231053Z AUTO 10006KT 4SM BR OVC006 03/02 A3012 RMK AO2
KORB 231033Z AUTO 11003KT 5SM BR OVC006 03/02 A3013 RMK AO2
KORB 231013Z AUTO 08004KT 7SM OVC006 03/02 A3013 RMK AO2
KORB 230953Z AUTO 07003KT 10SM OVC008 03/02 A3012 RMK AO2
KORB 230933Z AUTO 10006KT 10SM OVC008 03/02 A3011 RMK AO2
KORB 230913Z AUTO 08005KT 10SM OVC008 03/02 A3012 RMK AO2
KORB 230853Z AUTO 00000KT 10SM OVC010 04/02 A3012 RMK AO2
KORB 230833Z AUTO 08005KT 10SM OVC010 04/02 A3011 RMK AO2
KORB 230813Z AUTO 08004KT 10SM OVC010 04/02 A3011 RMK AO2
KORB 230753Z AUTO 08004KT 7SM OVC007 04/02 A3011 RMK AO2
KORB 230733Z AUTO 00000KT 10SM OVC007 04/02 A3012 RMK AO2
KORB 230713Z AUTO 09006KT 10SM OVC007 04/02 A3012 RMK AO2
KORB 230653Z AUTO 11003KT 10SM OVC007 04/02 A3012 RMK AO2
KORB 230633Z AUTO 07005KT 10SM OVC007 04/02 A3012 RMK AO2
KORB 230613Z AUTO 08003KT 10SM OVC009 04/02 A3012 RMK AO2
KORB 230553Z AUTO 06004KT 10SM OVC009 04/02 A3013 RMK AO2
KORB 230533Z AUTO 08004KT 10SM OVC011 04/02 A3012 RMK AO2
KORB 230513Z AUTO 09004KT 10SM BKN009 OVC013 04/03 A3011 RMK AO2
KORB 230453Z AUTO 00000KT 7SM BKN009 BKN014 OVC043 05/03 A3013 RMK AO2
KORB 230433Z AUTO 08003KT 10SM BKN009 BKN012 OVC037 04/03 A3013 RMK AO2
KORB 230413Z AUTO 08003KT 7SM OVC007 04/03 A3012 RMK AO2
KORB 230353Z AUTO 00000KT 7SM OVC009 05/03 A3012 RMK AO2
KORB 230333Z AUTO 00000KT 10SM OVC009 05/03 A3012 RMK AO2
KORB 230313Z AUTO 05004KT 10SM OVC009 05/03 A3011 RMK AO2
KORB 230253Z AUTO 00000KT 10SM OVC009 05/03 A3010 RMK AO2
KORB 230233Z AUTO 04005KT 10SM OVC009 06/03 A3010 RMK AO2
KORB 230213Z AUTO 07004KT 10SM OVC009 06/03 A3011 RMK AO2
KORB 230153Z AUTO 05004KT 10SM OVC007 06/03 A3011 RMK AO2
KORB 230133Z AUTO 00000KT 10SM OVC007 06/04 A3010 RMK AO2
KORB 230113Z AUTO 00000KT 10SM OVC007 07/04 A3007 RMK AO2
KORB 230053Z AUTO 03003KT 10SM OVC007 07/05 A3009 RMK AO2
KORB 230033Z AUTO 36004KT 10SM BKN009 BKN016 OVC036 08/06 A3009 RMK AO2
KORB 230013Z AUTO 00000KT 10SM SCT016 BKN050 OVC060 09/06 A3007 RMK AO2
KORB 222353Z AUTO 00000KT 10SM SCT047 OVC060 11/07 A3006 RMK AO2
KORB 222333Z AUTO 00000KT 10SM BKN045 OVC060 12/08 A3005 RMK AO2
KORB 222313Z AUTO 00000KT 10SM OVC039 12/07 A3004 RMK AO2
KORB 222253Z AUTO 00000KT 10SM BKN037 BKN042 12/08 A3003 RMK AO2
KORB 222233Z AUTO 00000KT 10SM SCT041 13/07 A3003 RMK AO2
KORB 222213Z AUTO 00000KT 10SM SCT110 13/07 A3003 RMK AO2
KORB 222153Z AUTO 00000KT 10SM CLR 13/07 A3002 RMK AO2
KORB 222133Z AUTO 00000KT 10SM SCT100 13/07 A3003 RMK AO2
KORB 222113Z AUTO 00000KT 10SM SCT070 SCT090 13/07 A3004 RMK AO2
KORB 222053Z AUTO 00000KT 10SM SCT070 BKN090 12/07 A3005 RMK AO2
KORB 222033Z AUTO 00000KT 10SM SCT075 BKN090 12/07 A3005 RMK AO2
KORB 222013Z AUTO 00000KT 10SM -DZ BKN075 12/07 A3005 RMK AO2
KORB 221953Z AUTO 00000KT 10SM RA SCT075 BKN090 12/06 A3006 RMK AO2
KORB 221933Z AUTO 26003KT 10SM BKN090 12/06 A3008 RMK AO2
KORB 221913Z AUTO 19003KT 10SM SCT075 BKN090 12/06 A3008 RMK AO2
KORB 221853Z AUTO 19005KT 10SM SCT075 BKN090 11/06 A3009 RMK AO2
KORB 221833Z AUTO 20005KT 10SM BKN090 12/05 A3009 RMK AO2
KORB 221813Z AUTO 19007KT 10SM SCT032 SCT100 12/05 A3010 RMK AO2
KORB 221753Z AUTO 20007KT 160V220 10SM SCT030 SCT075 BKN110 12/04 A3010 RMK AO2